Aérodrome :
LOGIN :

S'inscrire | Disclaimer

   EN    FR    IT 

 










Légende :    VFR   VFR Marginal   IFR   IFR Intensif   IFR Très Intensif
Visi : 
Plafond : 
>= 8 km
>= 3000ft
5 à 8 km
1000 à 3000 ft
1500m à 5 km
500 à 1000 ft
800 à 1500m
200 à 500 ft
< 800m
< 200 ft
Symboles :   Orages  Brouillard  Fortes neiges  Fortes précipitations  Vent > 20 kt
SIGMETs :   Divers  Orages  Givrage  Turbulence  Onde Orograph.  Cendres Volcan.







- Altitude de l'aérodrome : 309 ft
- Code IATA : FNI
- Voir les cartes d'approche


LFTW - Nîmes Garons

DERNIER METAR :
  • 202100Z AUTO VRB03KT CAVOK 15/12 Q1015

METARs EXPIRÉS :
  • 202030Z AUTO 02004KT CAVOK 15/12 Q1014
  • 202000Z AUTO 02005KT CAVOK 16/12 Q1014
  • 201930Z AUTO 04005KT CAVOK 17/12 Q1014
  • 201900Z AUTO 03007KT CAVOK 18/12 Q1014 NOSIG
  • 201830Z AUTO 12002KT 9999 ///CB 20/13 Q1013 BECMG NSC

TAF AMD TAF LFTW
Valide du 20 à 16h jusqu'au 21 à 15h UTC


201634Z 2016/2115 VRB03KT CAVOK
TEMPO 2016/2018 SHRA SCT040TCU
PROB40
TEMPO 2016/2018 VRB15G25KT TSRA FEW040CB
BECMG 2112/2114 16010KT
Pas de NOTAMs connus pour ce terrain.



MET'MAP, la Météo Aéronautique d'un coup d'oeil ! - Copyright ORBIFLY Décembre 2007 - Disclaimer

ORBIFLY MET'MAP TEAM :

Programmation & Développement : Alexandra Zaïnal
Conception & Développement : Baudouin d'Aumeries
Co-Programmation & Développement : Marc-Olivier Méhu
Soutien technique & logistique : Manuel Goepfert

Contact : metmap@orbifly.com




SOURCES & CREDITS :

   NOAA